sensor_id;sensor_type;location;lat;lon;timestamp;P1;durP1;ratioP1;P2;durP2;ratioP2
10418;SDS011;5256;48.728;9.140;2022-12-05T00:01:26;0.80;;;0.80;;
10418;SDS011;5256;48.728;9.140;2022-12-05T00:03:55;0.80;;;0.80;;
10418;SDS011;5256;48.728;9.140;2022-12-05T00:06:26;0.70;;;0.70;;
10418;SDS011;5256;48.728;9.140;2022-12-05T00:08:52;0.90;;;0.90;;
10418;SDS011;5256;48.728;9.140;2022-12-05T00:11:20;0.80;;;0.80;;
10418;SDS011;5256;48.728;9.140;2022-12-05T00:13:48;0.70;;;0.70;;
10418;SDS011;5256;48.728;9.140;2022-12-05T00:16:15;0.80;;;0.80;;
10418;SDS011;5256;48.728;9.140;2022-12-05T00:18:42;0.73;;;0.73;;
10418;SDS011;5256;48.728;9.140;2022-12-05T00:21:11;0.80;;;0.80;;
10418;SDS011;5256;48.728;9.140;2022-12-05T00:23:43;0.80;;;0.80;;
10418;SDS011;5256;48.728;9.140;2022-12-05T00:26:09;0.73;;;0.73;;
10418;SDS011;5256;48.728;9.140;2022-12-05T00:28:35;0.80;;;0.80;;
10418;SDS011;5256;48.728;9.140;2022-12-05T00:31:02;0.80;;;0.80;;
10418;SDS011;5256;48.728;9.140;2022-12-05T00:33:28;0.70;;;0.70;;
10418;SDS011;5256;48.728;9.140;2022-12-05T00:35:54;0.90;;;0.90;;
10418;SDS011;5256;48.728;9.140;2022-12-05T00:38:19;0.80;;;0.80;;
10418;SDS011;5256;48.728;9.140;2022-12-05T00:40:45;0.80;;;0.80;;
10418;SDS011;5256;48.728;9.140;2022-12-05T00:43:11;0.80;;;0.80;;
10418;SDS011;5256;48.728;9.140;2022-12-05T00:45:36;0.80;;;0.80;;
10418;SDS011;5256;48.728;9.140;2022-12-05T00:48:02;0.73;;;0.73;;
10418;SDS011;5256;48.728;9.140;2022-12-05T00:50:27;0.80;;;0.80;;
10418;SDS011;5256;48.728;9.140;2022-12-05T00:52:53;0.80;;;0.80;;
10418;SDS011;5256;48.728;9.140;2022-12-05T00:55:18;0.80;;;0.80;;
10418;SDS011;5256;48.728;9.140;2022-12-05T00:57:44;0.80;;;0.80;;
10418;SDS011;5256;48.728;9.140;2022-12-05T01:00:09;0.80;;;0.80;;
10418;SDS011;5256;48.728;9.140;2022-12-05T01:02:35;0.80;;;0.80;;
10418;SDS011;5256;48.728;9.140;2022-12-05T01:05:02;0.80;;;0.80;;
10418;SDS011;5256;48.728;9.140;2022-12-05T01:07:27;0.80;;;0.80;;
10418;SDS011;5256;48.728;9.140;2022-12-05T01:09:53;0.83;;;0.83;;
10418;SDS011;5256;48.728;9.140;2022-12-05T01:12:18;0.90;;;0.90;;
10418;SDS011;5256;48.728;9.140;2022-12-05T01:14:44;0.80;;;0.80;;
10418;SDS011;5256;48.728;9.140;2022-12-05T01:17:09;0.70;;;0.70;;
10418;SDS011;5256;48.728;9.140;2022-12-05T01:19:35;0.80;;;0.80;;
10418;SDS011;5256;48.728;9.140;2022-12-05T01:22:01;0.80;;;0.80;;
10418;SDS011;5256;48.728;9.140;2022-12-05T01:24:26;0.80;;;0.80;;
10418;SDS011;5256;48.728;9.140;2022-12-05T01:26:54;0.80;;;0.80;;
10418;SDS011;5256;48.728;9.140;2022-12-05T01:29:20;0.90;;;0.90;;
10418;SDS011;5256;48.728;9.140;2022-12-05T01:31:46;0.80;;;0.80;;
10418;SDS011;5256;48.728;9.140;2022-12-05T01:34:13;0.80;;;0.80;;
10418;SDS011;5256;48.728;9.140;2022-12-05T01:36:40;0.80;;;0.80;;
10418;SDS011;5256;48.728;9.140;2022-12-05T01:39:07;0.80;;;0.80;;
10418;SDS011;5256;48.728;9.140;2022-12-05T01:41:41;0.80;;;0.80;;
10418;SDS011;5256;48.728;9.140;2022-12-05T01:46:47;0.80;;;0.80;;
10418;SDS011;5256;48.728;9.140;2022-12-05T01:49:15;0.70;;;0.70;;
10418;SDS011;5256;48.728;9.140;2022-12-05T01:51:45;0.80;;;0.80;;
10418;SDS011;5256;48.728;9.140;2022-12-05T01:54:13;0.80;;;0.80;;
10418;SDS011;5256;48.728;9.140;2022-12-05T01:56:41;0.70;;;0.70;;
10418;SDS011;5256;48.728;9.140;2022-12-05T01:59:12;0.80;;;0.80;;
10418;SDS011;5256;48.728;9.140;2022-12-05T02:01:38;0.70;;;0.70;;
10418;SDS011;5256;48.728;9.140;2022-12-05T02:04:04;0.80;;;0.80;;
10418;SDS011;5256;48.728;9.140;2022-12-05T02:06:31;0.80;;;0.80;;
10418;SDS011;5256;48.728;9.140;2022-12-05T02:08:57;0.80;;;0.80;;
10418;SDS011;5256;48.728;9.140;2022-12-05T02:11:23;0.80;;;0.80;;
10418;SDS011;5256;48.728;9.140;2022-12-05T02:16:47;0.90;;;0.90;;
10418;SDS011;5256;48.728;9.140;2022-12-05T02:19:31;0.80;;;0.80;;
10418;SDS011;5256;48.728;9.140;2022-12-05T02:28:01;0.80;;;0.80;;
10418;SDS011;5256;48.728;9.140;2022-12-05T02:30:44;0.80;;;0.80;;
10418;SDS011;5256;48.728;9.140;2022-12-05T02:41:52;0.90;;;0.90;;
10418;SDS011;5256;48.728;9.140;2022-12-05T02:44:29;0.87;;;0.87;;
10418;SDS011;5256;48.728;9.140;2022-12-05T02:47:01;0.80;;;0.80;;
10418;SDS011;5256;48.728;9.140;2022-12-05T02:49:32;0.80;;;0.80;;
10418;SDS011;5256;48.728;9.140;2022-12-05T02:52:01;0.70;;;0.70;;
10418;SDS011;5256;48.728;9.140;2022-12-05T02:54:29;0.80;;;0.80;;
10418;SDS011;5256;48.728;9.140;2022-12-05T02:56:59;0.80;;;0.80;;
10418;SDS011;5256;48.728;9.140;2022-12-05T02:59:25;0.80;;;0.80;;
10418;SDS011;5256;48.728;9.140;2022-12-05T03:01:52;0.80;;;0.80;;
10418;SDS011;5256;48.728;9.140;2022-12-05T03:04:18;0.90;;;0.90;;
10418;SDS011;5256;48.728;9.140;2022-12-05T03:07:02;0.80;;;0.80;;
10418;SDS011;5256;48.728;9.140;2022-12-05T03:12:29;0.77;;;0.77;;
10418;SDS011;5256;48.728;9.140;2022-12-05T03:17:39;0.80;;;0.80;;
10418;SDS011;5256;48.728;9.140;2022-12-05T03:20:21;0.80;;;0.80;;
10418;SDS011;5256;48.728;9.140;2022-12-05T03:23:06;0.80;;;0.80;;
10418;SDS011;5256;48.728;9.140;2022-12-05T03:28:37;0.80;;;0.80;;
10418;SDS011;5256;48.728;9.140;2022-12-05T03:31:32;0.80;;;0.80;;
10418;SDS011;5256;48.728;9.140;2022-12-05T03:34:19;0.80;;;0.80;;
10418;SDS011;5256;48.728;9.140;2022-12-05T03:36:52;0.80;;;0.80;;
10418;SDS011;5256;48.728;9.140;2022-12-05T03:39:22;0.70;;;0.70;;
10418;SDS011;5256;48.728;9.140;2022-12-05T03:44:25;0.80;;;0.80;;
10418;SDS011;5256;48.728;9.140;2022-12-05T03:49:57;0.80;;;0.80;;
10418;SDS011;5256;48.728;9.140;2022-12-05T03:52:28;0.80;;;0.80;;
10418;SDS011;5256;48.728;9.140;2022-12-05T03:55:00;0.87;;;0.87;;
10418;SDS011;5256;48.728;9.140;2022-12-05T03:57:30;0.80;;;0.80;;
10418;SDS011;5256;48.728;9.140;2022-12-05T04:00:16;0.73;;;0.73;;
10418;SDS011;5256;48.728;9.140;2022-12-05T04:03:06;0.80;;;0.80;;
10418;SDS011;5256;48.728;9.140;2022-12-05T04:05:44;0.90;;;0.90;;
10418;SDS011;5256;48.728;9.140;2022-12-05T04:11:00;0.80;;;0.80;;
10418;SDS011;5256;48.728;9.140;2022-12-05T04:13:35;0.83;;;0.83;;
10418;SDS011;5256;48.728;9.140;2022-12-05T04:16:07;0.80;;;0.80;;
10418;SDS011;5256;48.728;9.140;2022-12-05T04:18:57;0.80;;;0.80;;
10418;SDS011;5256;48.728;9.140;2022-12-05T04:21:29;0.80;;;0.80;;
10418;SDS011;5256;48.728;9.140;2022-12-05T04:24:10;0.70;;;0.70;;
10418;SDS011;5256;48.728;9.140;2022-12-05T04:27:11;0.80;;;0.80;;
10418;SDS011;5256;48.728;9.140;2022-12-05T04:30:06;0.90;;;0.90;;
10418;SDS011;5256;48.728;9.140;2022-12-05T04:35:34;0.80;;;0.80;;
10418;SDS011;5256;48.728;9.140;2022-12-05T04:38:29;0.70;;;0.70;;
10418;SDS011;5256;48.728;9.140;2022-12-05T04:41:02;0.90;;;0.90;;
10418;SDS011;5256;48.728;9.140;2022-12-05T04:43:31;0.80;;;0.80;;
10418;SDS011;5256;48.728;9.140;2022-12-05T04:46:01;0.80;;;0.80;;
10418;SDS011;5256;48.728;9.140;2022-12-05T04:48:29;0.80;;;0.80;;
10418;SDS011;5256;48.728;9.140;2022-12-05T04:50:56;0.77;;;0.77;;
10418;SDS011;5256;48.728;9.140;2022-12-05T04:53:24;0.70;;;0.70;;
10418;SDS011;5256;48.728;9.140;2022-12-05T04:55:53;0.80;;;0.80;;
10418;SDS011;5256;48.728;9.140;2022-12-05T04:58:22;0.80;;;0.80;;
10418;SDS011;5256;48.728;9.140;2022-12-05T05:03:20;0.80;;;0.80;;
10418;SDS011;5256;48.728;9.140;2022-12-05T05:05:49;0.80;;;0.80;;
10418;SDS011;5256;48.728;9.140;2022-12-05T05:08:18;0.80;;;0.80;;
10418;SDS011;5256;48.728;9.140;2022-12-05T05:13:36;0.80;;;0.80;;
10418;SDS011;5256;48.728;9.140;2022-12-05T05:16:02;0.80;;;0.80;;
10418;SDS011;5256;48.728;9.140;2022-12-05T05:18:28;0.80;;;0.80;;
10418;SDS011;5256;48.728;9.140;2022-12-05T05:20:53;0.80;;;0.80;;
10418;SDS011;5256;48.728;9.140;2022-12-05T05:23:19;0.80;;;0.80;;
10418;SDS011;5256;48.728;9.140;2022-12-05T05:25:44;0.77;;;0.77;;
10418;SDS011;5256;48.728;9.140;2022-12-05T05:28:10;0.80;;;0.80;;
10418;SDS011;5256;48.728;9.140;2022-12-05T05:30:35;0.70;;;0.70;;
10418;SDS011;5256;48.728;9.140;2022-12-05T05:33:01;0.70;;;0.70;;
10418;SDS011;5256;48.728;9.140;2022-12-05T05:35:26;0.70;;;0.70;;
10418;SDS011;5256;48.728;9.140;2022-12-05T05:37:52;0.70;;;0.70;;
10418;SDS011;5256;48.728;9.140;2022-12-05T05:40:17;0.70;;;0.70;;
10418;SDS011;5256;48.728;9.140;2022-12-05T05:42:47;0.80;;;0.80;;
10418;SDS011;5256;48.728;9.140;2022-12-05T05:45:14;0.70;;;0.70;;
10418;SDS011;5256;48.728;9.140;2022-12-05T05:47:40;0.70;;;0.70;;
10418;SDS011;5256;48.728;9.140;2022-12-05T05:50:07;0.70;;;0.70;;
10418;SDS011;5256;48.728;9.140;2022-12-05T05:52:34;0.80;;;0.80;;
10418;SDS011;5256;48.728;9.140;2022-12-05T05:55:01;0.80;;;0.80;;
10418;SDS011;5256;48.728;9.140;2022-12-05T05:57:27;0.70;;;0.70;;
10418;SDS011;5256;48.728;9.140;2022-12-05T05:59:54;0.70;;;0.70;;
10418;SDS011;5256;48.728;9.140;2022-12-05T06:02:19;0.70;;;0.70;;
10418;SDS011;5256;48.728;9.140;2022-12-05T06:04:45;0.73;;;0.73;;
10418;SDS011;5256;48.728;9.140;2022-12-05T06:07:11;0.80;;;0.80;;
10418;SDS011;5256;48.728;9.140;2022-12-05T06:09:36;0.70;;;0.70;;
10418;SDS011;5256;48.728;9.140;2022-12-05T06:12:02;0.80;;;0.80;;
10418;SDS011;5256;48.728;9.140;2022-12-05T06:14:28;0.70;;;0.70;;
10418;SDS011;5256;48.728;9.140;2022-12-05T06:16:53;0.70;;;0.70;;
10418;SDS011;5256;48.728;9.140;2022-12-05T06:19:19;0.80;;;0.80;;
10418;SDS011;5256;48.728;9.140;2022-12-05T06:21:44;0.80;;;0.80;;
10418;SDS011;5256;48.728;9.140;2022-12-05T06:24:14;0.80;;;0.80;;
10418;SDS011;5256;48.728;9.140;2022-12-05T06:26:39;0.77;;;0.77;;
10418;SDS011;5256;48.728;9.140;2022-12-05T06:29:05;0.80;;;0.80;;
10418;SDS011;5256;48.728;9.140;2022-12-05T06:31:31;0.80;;;0.80;;
10418;SDS011;5256;48.728;9.140;2022-12-05T06:34:01;0.73;;;0.73;;
10418;SDS011;5256;48.728;9.140;2022-12-05T06:36:28;0.73;;;0.73;;
10418;SDS011;5256;48.728;9.140;2022-12-05T06:38:57;0.77;;;0.77;;
10418;SDS011;5256;48.728;9.140;2022-12-05T06:41:24;0.80;;;0.80;;
10418;SDS011;5256;48.728;9.140;2022-12-05T06:43:52;0.80;;;0.80;;
10418;SDS011;5256;48.728;9.140;2022-12-05T06:46:18;0.50;;;0.50;;
10418;SDS011;5256;48.728;9.140;2022-12-05T06:48:44;0.70;;;0.70;;
10418;SDS011;5256;48.728;9.140;2022-12-05T06:51:11;0.77;;;0.77;;
10418;SDS011;5256;48.728;9.140;2022-12-05T06:53:38;0.70;;;0.70;;
10418;SDS011;5256;48.728;9.140;2022-12-05T06:56:05;0.70;;;0.70;;
10418;SDS011;5256;48.728;9.140;2022-12-05T06:58:35;0.80;;;0.80;;
10418;SDS011;5256;48.728;9.140;2022-12-05T07:01:01;0.70;;;0.70;;
10418;SDS011;5256;48.728;9.140;2022-12-05T07:03:47;0.80;;;0.80;;
10418;SDS011;5256;48.728;9.140;2022-12-05T07:06:13;0.70;;;0.70;;
10418;SDS011;5256;48.728;9.140;2022-12-05T07:08:38;0.70;;;0.70;;
10418;SDS011;5256;48.728;9.140;2022-12-05T07:11:05;0.70;;;0.70;;
10418;SDS011;5256;48.728;9.140;2022-12-05T07:13:31;0.80;;;0.80;;
10418;SDS011;5256;48.728;9.140;2022-12-05T07:15:57;0.70;;;0.70;;
10418;SDS011;5256;48.728;9.140;2022-12-05T07:18:23;0.80;;;0.80;;
10418;SDS011;5256;48.728;9.140;2022-12-05T07:20:55;0.60;;;0.60;;
10418;SDS011;5256;48.728;9.140;2022-12-05T07:23:22;0.60;;;0.60;;
10418;SDS011;5256;48.728;9.140;2022-12-05T07:25:48;0.70;;;0.70;;
10418;SDS011;5256;48.728;9.140;2022-12-05T07:28:13;0.70;;;0.70;;
10418;SDS011;5256;48.728;9.140;2022-12-05T07:30:39;0.80;;;0.80;;
10418;SDS011;5256;48.728;9.140;2022-12-05T07:33:04;0.80;;;0.80;;
10418;SDS011;5256;48.728;9.140;2022-12-05T07:35:30;0.70;;;0.70;;
10418;SDS011;5256;48.728;9.140;2022-12-05T07:37:55;0.80;;;0.80;;
10418;SDS011;5256;48.728;9.140;2022-12-05T07:40:21;0.70;;;0.70;;
10418;SDS011;5256;48.728;9.140;2022-12-05T07:42:47;0.60;;;0.60;;
10418;SDS011;5256;48.728;9.140;2022-12-05T07:45:13;0.70;;;0.70;;
10418;SDS011;5256;48.728;9.140;2022-12-05T07:47:38;0.60;;;0.60;;
10418;SDS011;5256;48.728;9.140;2022-12-05T07:50:04;0.70;;;0.70;;
10418;SDS011;5256;48.728;9.140;2022-12-05T07:52:30;0.70;;;0.70;;
10418;SDS011;5256;48.728;9.140;2022-12-05T07:54:55;0.70;;;0.70;;
10418;SDS011;5256;48.728;9.140;2022-12-05T07:57:22;0.70;;;0.70;;
10418;SDS011;5256;48.728;9.140;2022-12-05T07:59:48;0.70;;;0.70;;
10418;SDS011;5256;48.728;9.140;2022-12-05T08:02:13;0.60;;;0.60;;
10418;SDS011;5256;48.728;9.140;2022-12-05T08:04:39;0.60;;;0.60;;
10418;SDS011;5256;48.728;9.140;2022-12-05T08:07:04;0.60;;;0.60;;
10418;SDS011;5256;48.728;9.140;2022-12-05T08:09:30;0.70;;;0.70;;
10418;SDS011;5256;48.728;9.140;2022-12-05T08:11:55;0.60;;;0.60;;
10418;SDS011;5256;48.728;9.140;2022-12-05T08:14:21;0.63;;;0.63;;
10418;SDS011;5256;48.728;9.140;2022-12-05T08:16:46;0.70;;;0.70;;
10418;SDS011;5256;48.728;9.140;2022-12-05T08:19:12;0.60;;;0.60;;
10418;SDS011;5256;48.728;9.140;2022-12-05T08:21:38;0.60;;;0.60;;
10418;SDS011;5256;48.728;9.140;2022-12-05T08:24:04;0.70;;;0.70;;
10418;SDS011;5256;48.728;9.140;2022-12-05T08:26:31;0.70;;;0.70;;
10418;SDS011;5256;48.728;9.140;2022-12-05T08:28:59;0.60;;;0.60;;
10418;SDS011;5256;48.728;9.140;2022-12-05T08:31:27;0.60;;;0.60;;
10418;SDS011;5256;48.728;9.140;2022-12-05T08:33:55;0.60;;;0.60;;
10418;SDS011;5256;48.728;9.140;2022-12-05T08:36:21;0.50;;;0.50;;
10418;SDS011;5256;48.728;9.140;2022-12-05T08:38:47;0.50;;;0.50;;
10418;SDS011;5256;48.728;9.140;2022-12-05T08:41:14;0.60;;;0.60;;
10418;SDS011;5256;48.728;9.140;2022-12-05T08:43:41;0.60;;;0.60;;
10418;SDS011;5256;48.728;9.140;2022-12-05T08:46:07;0.60;;;0.60;;
10418;SDS011;5256;48.728;9.140;2022-12-05T08:48:34;0.60;;;0.60;;
10418;SDS011;5256;48.728;9.140;2022-12-05T08:51:07;0.63;;;0.63;;
10418;SDS011;5256;48.728;9.140;2022-12-05T08:53:34;0.60;;;0.60;;
10418;SDS011;5256;48.728;9.140;2022-12-05T08:56:01;0.60;;;0.60;;
10418;SDS011;5256;48.728;9.140;2022-12-05T08:58:29;0.60;;;0.60;;
10418;SDS011;5256;48.728;9.140;2022-12-05T09:01:16;0.50;;;0.50;;
10418;SDS011;5256;48.728;9.140;2022-12-05T09:03:42;0.60;;;0.60;;
10418;SDS011;5256;48.728;9.140;2022-12-05T09:06:13;0.60;;;0.60;;
10418;SDS011;5256;48.728;9.140;2022-12-05T09:08:44;0.50;;;0.50;;
10418;SDS011;5256;48.728;9.140;2022-12-05T09:11:15;0.50;;;0.50;;
10418;SDS011;5256;48.728;9.140;2022-12-05T09:13:42;0.57;;;0.57;;
10418;SDS011;5256;48.728;9.140;2022-12-05T09:16:09;0.70;;;0.70;;
10418;SDS011;5256;48.728;9.140;2022-12-05T09:18:36;0.50;;;0.50;;
10418;SDS011;5256;48.728;9.140;2022-12-05T09:21:09;0.50;;;0.50;;
10418;SDS011;5256;48.728;9.140;2022-12-05T09:23:39;0.60;;;0.60;;
10418;SDS011;5256;48.728;9.140;2022-12-05T09:26:06;0.53;;;0.53;;
10418;SDS011;5256;48.728;9.140;2022-12-05T09:28:33;0.50;;;0.50;;
10418;SDS011;5256;48.728;9.140;2022-12-05T09:31:03;0.50;;;0.50;;
10418;SDS011;5256;48.728;9.140;2022-12-05T09:33:31;0.50;;;0.50;;
10418;SDS011;5256;48.728;9.140;2022-12-05T09:36:01;0.60;;;0.60;;
10418;SDS011;5256;48.728;9.140;2022-12-05T09:38:30;0.50;;;0.50;;
10418;SDS011;5256;48.728;9.140;2022-12-05T09:41:03;0.50;;;0.50;;
10418;SDS011;5256;48.728;9.140;2022-12-05T09:44:12;0.60;;;0.60;;
10418;SDS011;5256;48.728;9.140;2022-12-05T09:47:02;0.60;;;0.60;;
10418;SDS011;5256;48.728;9.140;2022-12-05T09:49:38;0.70;;;0.70;;
10418;SDS011;5256;48.728;9.140;2022-12-05T09:52:10;0.60;;;0.60;;
10418;SDS011;5256;48.728;9.140;2022-12-05T09:54:47;0.50;;;0.50;;
10418;SDS011;5256;48.728;9.140;2022-12-05T09:57:13;0.60;;;0.60;;
10418;SDS011;5256;48.728;9.140;2022-12-05T09:59:40;0.57;;;0.57;;
10418;SDS011;5256;48.728;9.140;2022-12-05T10:02:15;0.60;;;0.60;;
10418;SDS011;5256;48.728;9.140;2022-12-05T10:04:57;0.60;;;0.60;;
10418;SDS011;5256;48.728;9.140;2022-12-05T10:15:37;0.50;;;0.50;;
10418;SDS011;5256;48.728;9.140;2022-12-05T10:18:16;0.50;;;0.50;;
10418;SDS011;5256;48.728;9.140;2022-12-05T10:20:55;0.50;;;0.50;;
10418;SDS011;5256;48.728;9.140;2022-12-05T10:26:16;0.60;;;0.60;;
10418;SDS011;5256;48.728;9.140;2022-12-05T10:28:50;0.60;;;0.60;;
10418;SDS011;5256;48.728;9.140;2022-12-05T10:31:24;0.60;;;0.60;;
10418;SDS011;5256;48.728;9.140;2022-12-05T10:34:04;0.60;;;0.60;;
10418;SDS011;5256;48.728;9.140;2022-12-05T10:36:56;0.50;;;0.50;;
10418;SDS011;5256;48.728;9.140;2022-12-05T10:39:26;0.60;;;0.60;;
10418;SDS011;5256;48.728;9.140;2022-12-05T10:41:52;0.50;;;0.50;;
10418;SDS011;5256;48.728;9.140;2022-12-05T10:44:19;0.50;;;0.50;;
10418;SDS011;5256;48.728;9.140;2022-12-05T10:46:45;0.50;;;0.50;;
10418;SDS011;5256;48.728;9.140;2022-12-05T10:49:11;0.50;;;0.50;;
10418;SDS011;5256;48.728;9.140;2022-12-05T10:51:37;0.60;;;0.60;;
10418;SDS011;5256;48.728;9.140;2022-12-05T10:54:16;0.60;;;0.60;;
10418;SDS011;5256;48.728;9.140;2022-12-05T10:59:13;0.60;;;0.60;;
10418;SDS011;5256;48.728;9.140;2022-12-05T11:01:48;0.50;;;0.50;;
10418;SDS011;5256;48.728;9.140;2022-12-05T11:06:49;0.60;;;0.60;;
10418;SDS011;5256;48.728;9.140;2022-12-05T11:09:21;0.50;;;0.50;;
10418;SDS011;5256;48.728;9.140;2022-12-05T11:14:33;0.60;;;0.60;;
10418;SDS011;5256;48.728;9.140;2022-12-05T11:17:00;0.60;;;0.60;;
10418;SDS011;5256;48.728;9.140;2022-12-05T11:19:32;0.60;;;0.60;;
10418;SDS011;5256;48.728;9.140;2022-12-05T11:21:59;0.60;;;0.60;;
10418;SDS011;5256;48.728;9.140;2022-12-05T11:24:26;0.57;;;0.57;;
10418;SDS011;5256;48.728;9.140;2022-12-05T11:26:58;0.50;;;0.50;;
10418;SDS011;5256;48.728;9.140;2022-12-05T11:29:35;0.70;;;0.70;;
10418;SDS011;5256;48.728;9.140;2022-12-05T11:32:02;0.60;;;0.60;;
10418;SDS011;5256;48.728;9.140;2022-12-05T11:34:41;0.50;;;0.50;;
10418;SDS011;5256;48.728;9.140;2022-12-05T11:37:12;0.50;;;0.50;;
10418;SDS011;5256;48.728;9.140;2022-12-05T11:39:42;0.60;;;0.60;;
10418;SDS011;5256;48.728;9.140;2022-12-05T11:42:22;0.50;;;0.50;;
10418;SDS011;5256;48.728;9.140;2022-12-05T11:56:36;0.50;;;0.50;;
10418;SDS011;5256;48.728;9.140;2022-12-05T12:02:21;0.50;;;0.50;;
10418;SDS011;5256;48.728;9.140;2022-12-05T12:05:17;0.50;;;0.50;;
10418;SDS011;5256;48.728;9.140;2022-12-05T12:08:17;0.60;;;0.60;;
10418;SDS011;5256;48.728;9.140;2022-12-05T12:20:03;0.53;;;0.53;;
10418;SDS011;5256;48.728;9.140;2022-12-05T12:22:42;0.60;;;0.60;;
10418;SDS011;5256;48.728;9.140;2022-12-05T12:25:31;0.40;;;0.40;;
10418;SDS011;5256;48.728;9.140;2022-12-05T12:34:04;0.53;;;0.53;;
10418;SDS011;5256;48.728;9.140;2022-12-05T12:37:02;0.50;;;0.50;;
10418;SDS011;5256;48.728;9.140;2022-12-05T12:39:43;0.60;;;0.60;;
10418;SDS011;5256;48.728;9.140;2022-12-05T12:42:24;0.50;;;0.50;;
10418;SDS011;5256;48.728;9.140;2022-12-05T12:50:24;0.60;;;0.60;;
10418;SDS011;5256;48.728;9.140;2022-12-05T12:58:53;0.53;;;0.53;;
10418;SDS011;5256;48.728;9.140;2022-12-05T13:01:41;0.50;;;0.50;;
10418;SDS011;5256;48.728;9.140;2022-12-05T13:04:11;0.50;;;0.50;;
10418;SDS011;5256;48.728;9.140;2022-12-05T13:06:44;0.50;;;0.50;;
10418;SDS011;5256;48.728;9.140;2022-12-05T13:09:27;0.50;;;0.50;;
10418;SDS011;5256;48.728;9.140;2022-12-05T13:12:05;0.60;;;0.60;;
10418;SDS011;5256;48.728;9.140;2022-12-05T13:14:35;0.50;;;0.50;;
10418;SDS011;5256;48.728;9.140;2022-12-05T13:17:03;0.50;;;0.50;;
10418;SDS011;5256;48.728;9.140;2022-12-05T13:19:43;0.60;;;0.60;;
10418;SDS011;5256;48.728;9.140;2022-12-05T13:22:13;0.50;;;0.50;;
10418;SDS011;5256;48.728;9.140;2022-12-05T13:24:41;0.50;;;0.50;;
10418;SDS011;5256;48.728;9.140;2022-12-05T13:27:08;0.50;;;0.50;;
10418;SDS011;5256;48.728;9.140;2022-12-05T13:32:22;0.60;;;0.60;;
10418;SDS011;5256;48.728;9.140;2022-12-05T13:34:51;0.50;;;0.50;;
10418;SDS011;5256;48.728;9.140;2022-12-05T13:37:24;0.50;;;0.50;;
10418;SDS011;5256;48.728;9.140;2022-12-05T13:43:12;0.50;;;0.50;;
10418;SDS011;5256;48.728;9.140;2022-12-05T13:45:41;0.50;;;0.50;;
10418;SDS011;5256;48.728;9.140;2022-12-05T13:48:26;0.50;;;0.50;;
10418;SDS011;5256;48.728;9.140;2022-12-05T13:51:07;0.50;;;0.50;;
10418;SDS011;5256;48.728;9.140;2022-12-05T13:58:44;0.50;;;0.50;;
10418;SDS011;5256;48.728;9.140;2022-12-05T14:06:59;0.50;;;0.50;;
10418;SDS011;5256;48.728;9.140;2022-12-05T14:17:28;0.50;;;0.50;;
10418;SDS011;5256;48.728;9.140;2022-12-05T14:20:15;0.50;;;0.50;;
10418;SDS011;5256;48.728;9.140;2022-12-05T14:36:59;0.50;;;0.50;;
10418;SDS011;5256;48.728;9.140;2022-12-05T14:39:43;0.50;;;0.50;;
10418;SDS011;5256;48.728;9.140;2022-12-05T14:44:56;0.50;;;0.50;;
10418;SDS011;5256;48.728;9.140;2022-12-05T14:47:28;0.60;;;0.60;;
10418;SDS011;5256;48.728;9.140;2022-12-05T14:52:26;0.50;;;0.50;;
10418;SDS011;5256;48.728;9.140;2022-12-05T14:54:57;0.53;;;0.53;;
10418;SDS011;5256;48.728;9.140;2022-12-05T14:57:26;0.50;;;0.50;;
10418;SDS011;5256;48.728;9.140;2022-12-05T14:59:54;0.50;;;0.50;;
10418;SDS011;5256;48.728;9.140;2022-12-05T15:02:24;0.60;;;0.60;;
10418;SDS011;5256;48.728;9.140;2022-12-05T15:07:38;0.50;;;0.50;;
10418;SDS011;5256;48.728;9.140;2022-12-05T15:10:15;0.60;;;0.60;;
10418;SDS011;5256;48.728;9.140;2022-12-05T15:12:47;0.60;;;0.60;;
10418;SDS011;5256;48.728;9.140;2022-12-05T15:15:26;0.50;;;0.50;;
10418;SDS011;5256;48.728;9.140;2022-12-05T15:18:23;0.70;;;0.70;;
10418;SDS011;5256;48.728;9.140;2022-12-05T15:21:05;0.50;;;0.50;;
10418;SDS011;5256;48.728;9.140;2022-12-05T15:23:46;0.50;;;0.50;;
10418;SDS011;5256;48.728;9.140;2022-12-05T15:26:24;0.63;;;0.63;;
10418;SDS011;5256;48.728;9.140;2022-12-05T15:31:34;0.50;;;0.50;;
10418;SDS011;5256;48.728;9.140;2022-12-05T15:34:11;0.60;;;0.60;;
10418;SDS011;5256;48.728;9.140;2022-12-05T15:36:59;0.60;;;0.60;;
10418;SDS011;5256;48.728;9.140;2022-12-05T15:39:55;0.60;;;0.60;;
10418;SDS011;5256;48.728;9.140;2022-12-05T15:42:45;0.60;;;0.60;;
10418;SDS011;5256;48.728;9.140;2022-12-05T15:47:42;0.57;;;0.57;;
10418;SDS011;5256;48.728;9.140;2022-12-05T15:50:15;0.67;;;0.67;;
10418;SDS011;5256;48.728;9.140;2022-12-05T15:52:56;0.50;;;0.50;;
10418;SDS011;5256;48.728;9.140;2022-12-05T15:55:37;0.70;;;0.70;;
10418;SDS011;5256;48.728;9.140;2022-12-05T15:58:23;0.57;;;0.57;;
10418;SDS011;5256;48.728;9.140;2022-12-05T16:01:00;0.57;;;0.57;;
10418;SDS011;5256;48.728;9.140;2022-12-05T16:05:59;0.57;;;0.57;;
10418;SDS011;5256;48.728;9.140;2022-12-05T16:08:28;0.50;;;0.50;;
10418;SDS011;5256;48.728;9.140;2022-12-05T16:11:11;0.50;;;0.50;;
10418;SDS011;5256;48.728;9.140;2022-12-05T16:13:44;0.60;;;0.60;;
10418;SDS011;5256;48.728;9.140;2022-12-05T16:16:18;0.60;;;0.60;;
10418;SDS011;5256;48.728;9.140;2022-12-05T16:18:51;0.60;;;0.60;;
10418;SDS011;5256;48.728;9.140;2022-12-05T16:23:58;0.50;;;0.50;;
10418;SDS011;5256;48.728;9.140;2022-12-05T16:26:25;0.50;;;0.50;;
10418;SDS011;5256;48.728;9.140;2022-12-05T16:29:00;0.60;;;0.60;;
10418;SDS011;5256;48.728;9.140;2022-12-05T16:31:30;0.57;;;0.57;;
10418;SDS011;5256;48.728;9.140;2022-12-05T16:36:44;0.50;;;0.50;;
10418;SDS011;5256;48.728;9.140;2022-12-05T16:39:13;0.50;;;0.50;;
10418;SDS011;5256;48.728;9.140;2022-12-05T16:41:39;0.50;;;0.50;;
10418;SDS011;5256;48.728;9.140;2022-12-05T16:46:51;0.60;;;0.60;;
10418;SDS011;5256;48.728;9.140;2022-12-05T16:49:30;0.60;;;0.60;;
10418;SDS011;5256;48.728;9.140;2022-12-05T16:54:31;0.50;;;0.50;;
10418;SDS011;5256;48.728;9.140;2022-12-05T16:56:57;0.60;;;0.60;;
10418;SDS011;5256;48.728;9.140;2022-12-05T16:59:31;0.60;;;0.60;;
10418;SDS011;5256;48.728;9.140;2022-12-05T17:01:59;0.60;;;0.60;;
10418;SDS011;5256;48.728;9.140;2022-12-05T17:04:25;0.60;;;0.60;;
10418;SDS011;5256;48.728;9.140;2022-12-05T17:06:51;0.60;;;0.60;;
10418;SDS011;5256;48.728;9.140;2022-12-05T17:09:17;0.60;;;0.60;;
10418;SDS011;5256;48.728;9.140;2022-12-05T17:11:43;0.70;;;0.70;;
10418;SDS011;5256;48.728;9.140;2022-12-05T17:14:14;0.60;;;0.60;;
10418;SDS011;5256;48.728;9.140;2022-12-05T17:16:41;0.60;;;0.60;;
10418;SDS011;5256;48.728;9.140;2022-12-05T17:19:10;0.60;;;0.60;;
10418;SDS011;5256;48.728;9.140;2022-12-05T17:21:37;0.60;;;0.60;;
10418;SDS011;5256;48.728;9.140;2022-12-05T17:24:05;0.60;;;0.60;;
10418;SDS011;5256;48.728;9.140;2022-12-05T17:26:32;0.70;;;0.70;;
10418;SDS011;5256;48.728;9.140;2022-12-05T17:28:57;0.70;;;0.70;;
10418;SDS011;5256;48.728;9.140;2022-12-05T17:31:23;0.60;;;0.60;;
10418;SDS011;5256;48.728;9.140;2022-12-05T17:33:50;0.60;;;0.60;;
10418;SDS011;5256;48.728;9.140;2022-12-05T17:36:17;0.60;;;0.60;;
10418;SDS011;5256;48.728;9.140;2022-12-05T17:38:45;0.60;;;0.60;;
10418;SDS011;5256;48.728;9.140;2022-12-05T17:41:18;0.60;;;0.60;;
10418;SDS011;5256;48.728;9.140;2022-12-05T17:43:45;0.50;;;0.50;;
10418;SDS011;5256;48.728;9.140;2022-12-05T17:46:15;0.60;;;0.60;;
10418;SDS011;5256;48.728;9.140;2022-12-05T17:48:46;0.50;;;0.50;;
10418;SDS011;5256;48.728;9.140;2022-12-05T17:51:12;0.67;;;0.67;;
10418;SDS011;5256;48.728;9.140;2022-12-05T17:53:38;0.60;;;0.60;;
10418;SDS011;5256;48.728;9.140;2022-12-05T17:56:05;0.60;;;0.60;;
10418;SDS011;5256;48.728;9.140;2022-12-05T17:58:31;0.60;;;0.60;;
10418;SDS011;5256;48.728;9.140;2022-12-05T18:00:57;0.60;;;0.60;;
10418;SDS011;5256;48.728;9.140;2022-12-05T18:03:23;0.70;;;0.70;;
10418;SDS011;5256;48.728;9.140;2022-12-05T18:05:48;0.70;;;0.70;;
10418;SDS011;5256;48.728;9.140;2022-12-05T18:08:14;0.60;;;0.60;;
10418;SDS011;5256;48.728;9.140;2022-12-05T18:10:41;0.60;;;0.60;;
10418;SDS011;5256;48.728;9.140;2022-12-05T18:13:11;0.60;;;0.60;;